Lil D — WDC2462 — position and weather

sailwx.info

Track history (hours):
 
Tides and Currents Weather Stations Pressure Air Temp Water Temp Dewpoint Dewpoint Depression Visibility Wind Speed Wind Dir Waves Ship Positions

Lil D

Owner: Florida Marine, LLC, Mandeville, LA. More information available from US FCC via Universal Licensing System and Coast Guard Vessel Documentation Center.

Last reported at 2018-Jul-23 15:00 UTC. Time now 2018-Jul-23 15:21 UTC.
Position N 30°04' W 093°27'.

Length 36 m; draft 3 m.

Type: Other ship. MMSI: 366993510.

Date/timePositionNaut miles runAvg speedWind from/ knotsBaromVisibWave heightAir tempDewpointWater temp
2018-Jul-23 15:00N 30°04' W 093°27'0 0.0
2018-Jul-23 14:30N 30°04' W 093°27'1 1.3
2018-Jul-23 14:00N 30°04' W 093°28'0 0.1
2018-Jul-23 13:30N 30°04' W 093°28'1 1.1
2018-Jul-23 13:00N 30°04' W 093°28'1 1.3
2018-Jul-23 12:30N 30°04' W 093°29'1 2.7
2018-Jul-23 12:00N 30°04' W 093°31'0 0.4
2018-Jul-23 11:28N 30°04' W 093°31'0 0.2
2018-Jul-23 10:55N 30°04' W 093°31'1 1.4
2018-Jul-23 10:30N 30°04' W 093°32'0 0.2
2018-Jul-23 10:00N 30°04' W 093°32'1 2.5
2018-Jul-23 09:30N 30°04' W 093°33'2 3.9
2018-Jul-23 09:00N 30°04' W 093°35'3 5.1
2018-Jul-23 08:30N 30°04' W 093°38'3 5.1
2018-Jul-23 08:00N 30°04' W 093°41'2 4.3
2018-Jul-23 07:30N 30°03' W 093°44'3 5.6
2018-Jul-23 06:59N 30°01' W 093°46'3 5.6
2018-Jul-23 06:30N 29°59' W 093°48'2 4.7
2018-Jul-23 06:00N 29°58' W 093°51'2 4.3
2018-Jul-23 05:30N 29°56' W 093°52'2 4.8
2018-Jul-23 05:00N 29°54' W 093°54'3 5.2
2018-Jul-23 04:30N 29°52' W 093°56'2 4.8
2018-Jul-23 04:00N 29°50' W 093°57'2 4.4
2018-Jul-23 03:30N 29°49' W 093°59'3 5.3
2018-Jul-23 03:00N 29°47' W 094°01'3 5.6
2018-Jul-23 02:29N 29°45' W 094°04'3 5.6
2018-Jul-23 02:00N 29°44' W 094°06'3 5.5
2018-Jul-23 01:30N 29°42' W 094°09'3 5.3
2018-Jul-23 01:00N 29°41' W 094°12'2 4.9
2018-Jul-23 00:30N 29°40' W 094°14'3 5.2
2018-Jul-23 00:00N 29°39' W 094°17'3 5.2
2018-Jul-22 23:30N 29°37' W 094°20'3 5.2
2018-Jul-22 23:00N 29°36' W 094°22'3 4.6
2018-Jul-22 22:28N 29°36' W 094°25'2 4.2
2018-Jul-22 22:00N 29°34' W 094°26'2 4.5
2018-Jul-22 21:29N 29°33' W 094°28'2 4.4
2018-Jul-22 21:00N 29°31' W 094°30'2 4.7
2018-Jul-22 20:28N 29°30' W 094°33'4 4.7
2018-Jul-22 19:41N 29°29' W 094°37'2 4.4
2018-Jul-22 19:13N 29°28' W 094°39'1 3.4
2018-Jul-22 18:56N 29°28' W 094°40'2 4.3
2018-Jul-22 18:26N 29°27' W 094°42'2 4.6
2018-Jul-22 18:00N 29°25' W 094°44'2 4.6
2018-Jul-22 17:30N 29°24' W 094°46'0 1.0
2018-Jul-22 17:00N 29°23' W 094°46'2 4.2
2018-Jul-22 16:30N 29°22' W 094°48'2 3.6
2018-Jul-22 16:00N 29°22' W 094°50'3 3.3
2018-Jul-22 15:00N 29°22' W 094°54'0 0.0
2018-Jul-22 14:30N 29°22' W 094°54'0 0.0
2018-Jul-22 13:59N 29°22' W 094°54'0 0.0
2018-Jul-22 13:30N 29°22' W 094°54'0 0.0
2018-Jul-22 13:00N 29°22' W 094°53'0 0.0
2018-Jul-22 12:30N 29°22' W 094°53'0 0.0
2018-Jul-22 12:00N 29°22' W 094°53'1 1.4
2018-Jul-22 11:30N 29°22' W 094°53'0 0.7
2018-Jul-22 11:00N 29°23' W 094°54'0 0.0
2018-Jul-22 10:30N 29°23' W 094°54'0 0.0
2018-Jul-22 10:00N 29°23' W 094°54'0 0.0
2018-Jul-22 09:30N 29°23' W 094°54'0 0.0
2018-Jul-22 09:00N 29°23' W 094°54'0 0.0
2018-Jul-22 08:29N 29°23' W 094°54'0 0.0
2018-Jul-22 07:59N 29°23' W 094°54'0 0.0
2018-Jul-22 07:29N 29°23' W 094°54'0 0.0
2018-Jul-22 07:00N 29°23' W 094°54'0 0.0
2018-Jul-22 06:29N 29°23' W 094°54'0 0.0
2018-Jul-22 06:00N 29°23' W 094°54'0 0.0
2018-Jul-22 05:30N 29°23' W 094°54'0 0.0
2018-Jul-22 05:00N 29°23' W 094°54'0 0.0
2018-Jul-22 04:29N 29°23' W 094°54'0 0.0
2018-Jul-22 04:00N 29°23' W 094°54'0 0.0
2018-Jul-22 03:30N 29°23' W 094°54'0 0.0
2018-Jul-22 03:00N 29°23' W 094°54'0 0.0
2018-Jul-22 02:30N 29°23' W 094°54'0 0.0
2018-Jul-22 02:00N 29°23' W 094°54'0 0.0
2018-Jul-22 01:30N 29°23' W 094°54'0 0.0
2018-Jul-22 01:00N 29°23' W 094°54'0 0.0
2018-Jul-22 00:30N 29°23' W 094°54'0 0.0
2018-Jul-22 00:00N 29°23' W 094°54'0 0.0
2018-Jul-21 23:29N 29°23' W 094°54'0 0.0
2018-Jul-21 23:00N 29°23' W 094°54'0 0.0
2018-Jul-21 22:14N 29°23' W 094°54'0 0.0
2018-Jul-21 21:59N 29°23' W 094°54'0 0.0
2018-Jul-21 21:20N 29°23' W 094°54'0 0.0
2018-Jul-21 20:45N 29°23' W 094°54'0 0.0
2018-Jul-21 20:28N 29°23' W 094°54'0 0.0
2018-Jul-21 19:52N 29°23' W 094°54'0 0.0
2018-Jul-21 19:30N 29°23' W 094°54'0 0.0
2018-Jul-21 18:56N 29°23' W 094°54'0 0.0
2018-Jul-21 18:30N 29°23' W 094°54'0 0.0
2018-Jul-21 17:58N 29°23' W 094°54'0 0.0
2018-Jul-21 17:30N 29°23' W 094°54'0 0.0
2018-Jul-21 16:54N 29°23' W 094°54'0 0.0
2018-Jul-21 16:30N 29°23' W 094°54'0 0.0
2018-Jul-21 15:53N 29°23' W 094°54'0 0.0
2018-Jul-21 15:26N 29°23' W 094°54'0 0.0
2018-Jul-21 15:00N 29°23' W 094°54'0 0.0
2018-Jul-21 14:29N 29°23' W 094°54'0 0.0
2018-Jul-21 13:28N 29°23' W 094°54'0 0.0
2018-Jul-21 13:00N 29°23' W 094°54'1 1.3
2018-Jul-21 12:30N 29°22' W 094°53'0 0.0
2018-Jul-21 11:59N 29°22' W 094°53'0 0.0
2018-Jul-21 11:30N 29°22' W 094°53'0 0.0
2018-Jul-21 11:00N 29°22' W 094°53'0 0.0
2018-Jul-21 10:30N 29°22' W 094°53'0 0.0
2018-Jul-21 10:00N 29°22' W 094°53'0 0.0
2018-Jul-21 09:30N 29°22' W 094°53'0 0.0
2018-Jul-21 09:00N 29°22' W 094°53'0 0.0
2018-Jul-21 08:30N 29°22' W 094°53'0 0.0
2018-Jul-21 08:00N 29°22' W 094°53'0 0.0
2018-Jul-21 07:30N 29°22' W 094°53'0 0.0
2018-Jul-21 06:59N 29°22' W 094°53'0 0.0
2018-Jul-21 06:30N 29°22' W 094°53'0 0.0
2018-Jul-21 06:00N 29°22' W 094°53'0 0.0
2018-Jul-21 05:30N 29°22' W 094°53'0 0.0
2018-Jul-21 05:00N 29°22' W 094°53'0 0.0
2018-Jul-21 04:30N 29°22' W 094°53'0 0.0
2018-Jul-21 04:00N 29°22' W 094°53'0 0.5
2018-Jul-21 03:30N 29°22' W 094°53'0 0.5
2018-Jul-21 03:00N 29°22' W 094°53'1 1.3
2018-Jul-21 02:30N 29°22' W 094°53'4 7.4
2018-Jul-21 02:00N 29°22' W 094°49'3 6.2
2018-Jul-21 01:30N 29°23' W 094°46'3 5.7
2018-Jul-21 01:00N 29°25' W 094°43'4 7.2
2018-Jul-21 00:30N 29°28' W 094°40'2 3.8
2018-Jul-21 00:00N 29°28' W 094°38'4 7.2
2018-Jul-20 23:29N 29°30' W 094°34'3 7.1
2018-Jul-20 23:00N 29°31' W 094°31'3 6.5
2018-Jul-20 22:30N 29°33' W 094°28'3 5.8
2018-Jul-20 22:00N 29°35' W 094°25'2 4.7
2018-Jul-20 21:29N 29°36' W 094°22'3 6.2
2018-Jul-20 21:00N 29°37' W 094°20'3 6.3
2018-Jul-20 20:29N 29°39' W 094°16'3 6.3
2018-Jul-20 20:00N 29°40' W 094°13'3 6.0
2018-Jul-20 19:30N 29°41' W 094°10'3 6.0
2018-Jul-20 19:00N 29°43' W 094°07'3 6.2
2018-Jul-20 18:30N 29°45' W 094°04'3 5.6
2018-Jul-20 18:00N 29°47' W 094°02'3 5.6
2018-Jul-20 17:30N 29°49' W 093°60'2 4.9
2018-Jul-20 17:00N 29°50' W 093°57'3 6.1
2018-Jul-20 16:30N 29°53' W 093°55'3 6.3
2018-Jul-20 16:00N 29°55' W 093°53'3 6.5
2018-Jul-20 15:30N 29°58' W 093°51'0 0.4
2018-Jul-20 15:00N 29°58' W 093°52'0 0.1
2018-Jul-20 14:28N 29°58' W 093°52'2 4.6
2018-Jul-20 14:00N 29°59' W 093°49'4 8.5
2018-Jul-20 13:30N 30°01' W 093°45'3 6.3
2018-Jul-20 13:00N 30°03' W 093°42'3 5.1
2018-Jul-20 12:29N 30°04' W 093°39'2 4.5
2018-Jul-20 12:00N 30°04' W 093°37'2 4.4
2018-Jul-20 11:30N 30°04' W 093°34'2 4.5
2018-Jul-20 11:00N 30°04' W 093°32'3 5.0
2018-Jul-20 10:30N 30°04' W 093°29'3 5.1
2018-Jul-20 10:00N 30°04' W 093°26'1 2.4
2018-Jul-20 09:30N 30°04' W 093°25'2 3.8
2018-Jul-20 09:00N 30°04' W 093°22'2 3.3
2018-Jul-20 08:30N 30°04' W 093°21'1 1.2
2018-Jul-20 08:00N 30°05' W 093°20'0 0.0
2018-Jul-20 07:30N 30°05' W 093°20'0 0.0
2018-Jul-20 07:00N 30°05' W 093°20'1 2.3
2018-Jul-20 06:30N 30°06' W 093°19'2 3.0
2018-Jul-20 06:00N 30°05' W 093°18'0 0.8
2018-Jul-20 05:30N 30°05' W 093°17'1 1.2
2018-Jul-20 05:00N 30°05' W 093°17'0 0.0
2018-Jul-20 04:30N 30°05' W 093°17'1 2.2
2018-Jul-20 04:00N 30°04' W 093°16'2 3.3
2018-Jul-20 03:30N 30°02' W 093°15'0 1.0
2018-Jul-20 03:00N 30°02' W 093°15'1 1.8
2018-Jul-20 02:30N 30°01' W 093°14'0 0.0
2018-Jul-20 02:00N 30°01' W 093°14'0 0.0
2018-Jul-20 01:30N 30°01' W 093°14'0 0.0
2018-Jul-20 01:00N 30°02' W 093°14'0 0.0
2018-Jul-20 00:30N 30°01' W 093°14'0 0.0
2018-Jul-20 00:00N 30°02' W 093°14'0 0.0
2018-Jul-19 23:30N 30°02' W 093°14'0 0.0
2018-Jul-19 22:59N 30°02' W 093°14'0 0.1
2018-Jul-19 22:30N 30°01' W 093°14'3 6.0
2018-Jul-19 22:00N 29°59' W 093°12'0 0.5
2018-Jul-19 21:30N 29°59' W 093°12'0 0.0
2018-Jul-19 21:00N 29°59' W 093°12'0 0.0
2018-Jul-19 20:29N 29°59' W 093°12'0 0.0
2018-Jul-19 20:00N 29°59' W 093°12'0 0.0
2018-Jul-19 19:28N 29°59' W 093°12'0 0.0
2018-Jul-19 19:00N 29°59' W 093°12'0 0.0
2018-Jul-19 18:28N 29°59' W 093°12'0 0.0
2018-Jul-19 18:00N 29°59' W 093°12'0 0.0
2018-Jul-19 17:30N 29°59' W 093°12'0 0.0
2018-Jul-19 17:00N 29°59' W 093°12'0 0.0
2018-Jul-19 16:30N 29°59' W 093°12'0 0.0
2018-Jul-19 16:00N 29°59' W 093°12'0 0.0
2018-Jul-19 15:30N 29°59' W 093°12'0 0.0
2018-Jul-19 14:56N 29°59' W 093°12'0 0.0
2018-Jul-19 14:30N 29°59' W 093°12'1 0.7
2018-Jul-19 13:30N 29°58' W 093°11'0 0.0
2018-Jul-19 13:00N 29°58' W 093°11'0 0.0
2018-Jul-19 12:30N 29°58' W 093°11'0 0.0
2018-Jul-19 12:00N 29°58' W 093°11'0 0.0
2018-Jul-19 11:30N 29°58' W 093°11'0 0.0
2018-Jul-19 11:00N 29°58' W 093°11'0 0.0
2018-Jul-19 10:30N 29°58' W 093°11'0 0.0
2018-Jul-19 10:00N 29°58' W 093°11'0 0.0
2018-Jul-19 09:30N 29°58' W 093°11'0 0.0
2018-Jul-19 09:00N 29°58' W 093°11'0 0.0
2018-Jul-19 08:30N 29°58' W 093°11'0 0.0
2018-Jul-19 08:00N 29°58' W 093°11'0 0.0
2018-Jul-19 07:30N 29°58' W 093°11'0 0.0
2018-Jul-19 07:00N 29°58' W 093°11'0 0.0
2018-Jul-19 06:30N 29°58' W 093°11'0 0.0
2018-Jul-19 06:00N 29°58' W 093°11'0 0.0
2018-Jul-19 05:30N 29°58' W 093°11'0 0.0
2018-Jul-19 05:00N 29°58' W 093°11'0 0.0
2018-Jul-19 04:30N 29°58' W 093°11'0 0.0
2018-Jul-19 04:00N 29°58' W 093°11'1 2.9
2018-Jul-19 03:30N 29°57' W 093°10'1 1.8
2018-Jul-19 02:59N 29°56' W 093°10'0 0.0
2018-Jul-19 02:30N 29°56' W 093°10'0 0.0
2018-Jul-19 02:00N 29°56' W 093°10'0 0.1
2018-Jul-19 01:30N 29°56' W 093°10'1 2.3
2018-Jul-19 01:00N 29°56' W 093°08'1 2.3
2018-Jul-19 00:29N 29°56' W 093°07'1 2.9
2018-Jul-19 00:00N 29°56' W 093°05'0 0.1
2018-Jul-18 23:30N 29°56' W 093°05'0 0.0
2018-Jul-18 22:59N 29°56' W 093°05'0 0.0
2018-Jul-18 22:30N 29°56' W 093°05'0 0.0
2018-Jul-18 22:00N 29°56' W 093°05'0 0.0
2018-Jul-18 21:27N 29°56' W 093°05'0 0.0
2018-Jul-18 20:59N 29°56' W 093°05'0 0.0
2018-Jul-18 20:30N 29°56' W 093°05'0 0.0
2018-Jul-18 20:00N 29°56' W 093°05'0 0.0
2018-Jul-18 19:30N 29°56' W 093°05'0 0.0
2018-Jul-18 19:00N 29°56' W 093°05'0 0.0
2018-Jul-18 18:30N 29°56' W 093°05'0 0.0
2018-Jul-18 18:00N 29°56' W 093°05'0 0.0
2018-Jul-18 17:30N 29°56' W 093°05'0 0.0
2018-Jul-18 17:00N 29°56' W 093°05'0 0.0
2018-Jul-18 16:29N 29°56' W 093°05'0 0.0
2018-Jul-18 16:00N 29°56' W 093°05'0 0.0
2018-Jul-18 15:24N 29°56' W 093°05'0 0.0
2018-Jul-18 15:00N 29°56' W 093°05'0 0.0
2018-Jul-18 14:30N 29°56' W 093°05'0 0.0
2018-Jul-18 13:30N 29°56' W 093°05'0 0.0
2018-Jul-18 13:00N 29°56' W 093°05'1 1.2
2018-Jul-18 12:30N 29°56' W 093°06'1 1.8
2018-Jul-18 12:00N 29°56' W 093°07'0 0.0
2018-Jul-18 11:30N 29°56' W 093°07'0 0.0
2018-Jul-18 10:30N 29°56' W 093°07'0 0.0
2018-Jul-18 10:00N 29°56' W 093°07'0 0.0
2018-Jul-18 09:30N 29°56' W 093°07'0 0.0
2018-Jul-18 09:00N 29°56' W 093°07'0 0.0
2018-Jul-18 08:30N 29°56' W 093°07'0 0.0
2018-Jul-18 08:00N 29°56' W 093°07'0 0.0
2018-Jul-18 07:30N 29°56' W 093°07'0 0.0
2018-Jul-18 07:00N 29°56' W 093°07'0 0.0
2018-Jul-18 06:29N 29°56' W 093°07'0 0.0
2018-Jul-18 06:00N 29°56' W 093°07'0 0.0
2018-Jul-18 05:30N 29°56' W 093°07'0 0.0
2018-Jul-18 05:00N 29°56' W 093°07'0 0.0
2018-Jul-18 04:30N 29°56' W 093°07'0 0.1
2018-Jul-18 03:59N 29°56' W 093°07'0 0.1
2018-Jul-18 03:30N 29°56' W 093°07'0 0.0
2018-Jul-18 03:00N 29°56' W 093°07'0 0.0
2018-Jul-18 02:30N 29°56' W 093°07'0 0.0
2018-Jul-18 02:00N 29°56' W 093°07'2 3.0
2018-Jul-18 01:30N 29°56' W 093°05'3 2.6
2018-Jul-18 00:19N 29°56' W 093°02'0 0.0
2018-Jul-17 23:54N 29°56' W 093°02'0 0.0
2018-Jul-17 23:30N 29°56' W 093°02'0 0.0
2018-Jul-17 23:00N 29°56' W 093°02'0 0.0
2018-Jul-17 19:20N 29°56' W 093°02'0 0.0
2018-Jul-17 14:11N 29°56' W 093°02'0 0.8
2018-Jul-17 13:45N 29°56' W 093°01'1 2.6
2018-Jul-17 13:21N 29°56' W 093°00'1 2.9
2018-Jul-17 13:00N 29°56' W 092°59'1 1.0
2018-Jul-17 12:29N 29°56' W 092°58'0 0.0
2018-Jul-17 11:59N 29°56' W 092°58'0 0.0
2018-Jul-17 11:30N 29°56' W 092°58'0 0.0
2018-Jul-17 10:56N 29°56' W 092°58'0 0.0
2018-Jul-17 10:30N 29°56' W 092°58'0 0.0
2018-Jul-17 10:00N 29°56' W 092°58'0 0.0
2018-Jul-17 09:29N 29°56' W 092°58'0 0.0
2018-Jul-17 09:00N 29°56' W 092°58'0 0.0
2018-Jul-17 08:29N 29°56' W 092°58'0 0.0
2018-Jul-17 08:00N 29°56' W 092°58'0 0.0
2018-Jul-17 07:29N 29°56' W 092°58'0 0.0
2018-Jul-17 07:00N 29°56' W 092°58'0 0.0
2018-Jul-17 06:30N 29°56' W 092°58'0 0.0
2018-Jul-17 05:58N 29°56' W 092°58'0 0.0
2018-Jul-17 05:30N 29°56' W 092°58'0 0.0
2018-Jul-17 04:56N 29°56' W 092°58'0 0.0
2018-Jul-17 04:10N 29°56' W 092°58'0 0.0
2018-Jul-17 03:57N 29°56' W 092°58'0 0.0
2018-Jul-17 03:30N 29°56' W 092°58'0 0.0
2018-Jul-17 02:47N 29°56' W 092°58'5 0.4
2018-Jul-16 14:08N 29°57' W 092°53'0 3.1
2018-Jul-16 14:00N 29°57' W 092°53'22 4.7
2018-Jul-16 09:13N 29°54' W 092°27'1 4.0
2018-Jul-16 09:00N 29°53' W 092°26'2 3.3
2018-Jul-16 08:30N 29°53' W 092°24'3 4.1
2018-Jul-16 07:49N 29°51' W 092°22'1 4.0
2018-Jul-16 07:30N 29°51' W 092°20'2 3.6
2018-Jul-16 07:00N 29°50' W 092°18'2 3.7
2018-Jul-16 06:30N 29°49' W 092°17'2 3.1
2018-Jul-16 06:00N 29°48' W 092°15'2 3.1
2018-Jul-16 05:30N 29°48' W 092°14'1 2.8
2018-Jul-16 05:00N 29°47' W 092°12'1 2.6
2018-Jul-16 04:30N 29°47' W 092°11'1 2.9
2018-Jul-16 04:00N 29°47' W 092°09'2 4.2
2018-Jul-16 03:30N 29°47' W 092°07'3 5.7
2018-Jul-16 03:00N 29°48' W 092°04'3 5.8
2018-Jul-16 02:30N 29°50' W 092°01'3 6.5
2018-Jul-16 02:00N 29°50' W 091°57'63 3.8
2018-Jul-15 09:37N 29°32' W 090°48'1 4.7
2018-Jul-15 09:30N 29°32' W 090°48'2 4.0
2018-Jul-15 09:00N 29°33' W 090°45'2 3.8
2018-Jul-15 08:30N 29°34' W 090°44'1 2.7
2018-Jul-15 08:00N 29°35' W 090°43'2 3.7
2018-Jul-15 07:30N 29°37' W 090°42'2 4.8
2018-Jul-15 06:59N 29°36' W 090°39'3 4.5
2018-Jul-15 06:26N 29°35' W 090°37'  
Track history (hours):
 
Tides and Currents Weather Stations Pressure Air Temp Water Temp Dewpoint Dewpoint Depression Visibility Wind Speed Wind Dir Waves Ship Positions

Lil D

Owner: Florida Marine, LLC, Mandeville, LA. More information available from US FCC via Universal Licensing System and Coast Guard Vessel Documentation Center.

Last reported at 2018-Jul-23 15:00 UTC. Time now 2018-Jul-23 15:21 UTC.
Position N 30°04' W 093°27'.

Length 36 m; draft 3 m.

Type: Other ship. MMSI: 366993510.

Date/timePositionNaut miles runAvg speedWind from/ knotsBaromVisibWave heightAir tempDewpointWater temp
2018-Jul-23 15:00N 30°04' W 093°27'0 0.0
2018-Jul-23 14:30N 30°04' W 093°27'1 1.3
2018-Jul-23 14:00N 30°04' W 093°28'0 0.1
2018-Jul-23 13:30N 30°04' W 093°28'1 1.1
2018-Jul-23 13:00N 30°04' W 093°28'1 1.3
2018-Jul-23 12:30N 30°04' W 093°29'1 2.7
2018-Jul-23 12:00N 30°04' W 093°31'0 0.4
2018-Jul-23 11:28N 30°04' W 093°31'0 0.2
2018-Jul-23 10:55N 30°04' W 093°31'1 1.4
2018-Jul-23 10:30N 30°04' W 093°32'0 0.2
2018-Jul-23 10:00N 30°04' W 093°32'1 2.5
2018-Jul-23 09:30N 30°04' W 093°33'2 3.9
2018-Jul-23 09:00N 30°04' W 093°35'3 5.1
2018-Jul-23 08:30N 30°04' W 093°38'3 5.1
2018-Jul-23 08:00N 30°04' W 093°41'2 4.3
2018-Jul-23 07:30N 30°03' W 093°44'3 5.6
2018-Jul-23 06:59N 30°01' W 093°46'3 5.6
2018-Jul-23 06:30N 29°59' W 093°48'2 4.7
2018-Jul-23 06:00N 29°58' W 093°51'2 4.3
2018-Jul-23 05:30N 29°56' W 093°52'2 4.8
2018-Jul-23 05:00N 29°54' W 093°54'3 5.2
2018-Jul-23 04:30N 29°52' W 093°56'2 4.8
2018-Jul-23 04:00N 29°50' W 093°57'2 4.4
2018-Jul-23 03:30N 29°49' W 093°59'3 5.3
2018-Jul-23 03:00N 29°47' W 094°01'3 5.6
2018-Jul-23 02:29N 29°45' W 094°04'3 5.6
2018-Jul-23 02:00N 29°44' W 094°06'3 5.5
2018-Jul-23 01:30N 29°42' W 094°09'3 5.3
2018-Jul-23 01:00N 29°41' W 094°12'2 4.9
2018-Jul-23 00:30N 29°40' W 094°14'3 5.2
2018-Jul-23 00:00N 29°39' W 094°17'3 5.2
2018-Jul-22 23:30N 29°37' W 094°20'3 5.2
2018-Jul-22 23:00N 29°36' W 094°22'3 4.6
2018-Jul-22 22:28N 29°36' W 094°25'2 4.2
2018-Jul-22 22:00N 29°34' W 094°26'2 4.5
2018-Jul-22 21:29N 29°33' W 094°28'2 4.4
2018-Jul-22 21:00N 29°31' W 094°30'2 4.7
2018-Jul-22 20:28N 29°30' W 094°33'4 4.7
2018-Jul-22 19:41N 29°29' W 094°37'2 4.4
2018-Jul-22 19:13N 29°28' W 094°39'1 3.4
2018-Jul-22 18:56N 29°28' W 094°40'2 4.3
2018-Jul-22 18:26N 29°27' W 094°42'2 4.6
2018-Jul-22 18:00N 29°25' W 094°44'2 4.6
2018-Jul-22 17:30N 29°24' W 094°46'0 1.0
2018-Jul-22 17:00N 29°23' W 094°46'2 4.2
2018-Jul-22 16:30N 29°22' W 094°48'2 3.6
2018-Jul-22 16:00N 29°22' W 094°50'3 3.3
2018-Jul-22 15:00N 29°22' W 094°54'0 0.0
2018-Jul-22 14:30N 29°22' W 094°54'0 0.0
2018-Jul-22 13:59N 29°22' W 094°54'0 0.0
2018-Jul-22 13:30N 29°22' W 094°54'0 0.0
2018-Jul-22 13:00N 29°22' W 094°53'0 0.0
2018-Jul-22 12:30N 29°22' W 094°53'0 0.0
2018-Jul-22 12:00N 29°22' W 094°53'1 1.4
2018-Jul-22 11:30N 29°22' W 094°53'0 0.7
2018-Jul-22 11:00N 29°23' W 094°54'0 0.0
2018-Jul-22 10:30N 29°23' W 094°54'0 0.0
2018-Jul-22 10:00N 29°23' W 094°54'0 0.0
2018-Jul-22 09:30N 29°23' W 094°54'0 0.0
2018-Jul-22 09:00N 29°23' W 094°54'0 0.0
2018-Jul-22 08:29N 29°23' W 094°54'0 0.0
2018-Jul-22 07:59N 29°23' W 094°54'0 0.0
2018-Jul-22 07:29N 29°23' W 094°54'0 0.0
2018-Jul-22 07:00N 29°23' W 094°54'0 0.0
2018-Jul-22 06:29N 29°23' W 094°54'0 0.0
2018-Jul-22 06:00N 29°23' W 094°54'0 0.0
2018-Jul-22 05:30N 29°23' W 094°54'0 0.0
2018-Jul-22 05:00N 29°23' W 094°54'0 0.0
2018-Jul-22 04:29N 29°23' W 094°54'0 0.0
2018-Jul-22 04:00N 29°23' W 094°54'0 0.0
2018-Jul-22 03:30N 29°23' W 094°54'0 0.0
2018-Jul-22 03:00N 29°23' W 094°54'0 0.0
2018-Jul-22 02:30N 29°23' W 094°54'0 0.0
2018-Jul-22 02:00N 29°23' W 094°54'0 0.0
2018-Jul-22 01:30N 29°23' W 094°54'0 0.0
2018-Jul-22 01:00N 29°23' W 094°54'0 0.0
2018-Jul-22 00:30N 29°23' W 094°54'0 0.0
2018-Jul-22 00:00N 29°23' W 094°54'0 0.0
2018-Jul-21 23:29N 29°23' W 094°54'0 0.0
2018-Jul-21 23:00N 29°23' W 094°54'0 0.0
2018-Jul-21 22:14N 29°23' W 094°54'0 0.0
2018-Jul-21 21:59N 29°23' W 094°54'0 0.0
2018-Jul-21 21:20N 29°23' W 094°54'0 0.0
2018-Jul-21 20:45N 29°23' W 094°54'0 0.0
2018-Jul-21 20:28N 29°23' W 094°54'0 0.0
2018-Jul-21 19:52N 29°23' W 094°54'0 0.0
2018-Jul-21 19:30N 29°23' W 094°54'0 0.0
2018-Jul-21 18:56N 29°23' W 094°54'0 0.0
2018-Jul-21 18:30N 29°23' W 094°54'0 0.0
2018-Jul-21 17:58N 29°23' W 094°54'0 0.0
2018-Jul-21 17:30N 29°23' W 094°54'0 0.0
2018-Jul-21 16:54N 29°23' W 094°54'0 0.0
2018-Jul-21 16:30N 29°23' W 094°54'0 0.0
2018-Jul-21 15:53N 29°23' W 094°54'0 0.0
2018-Jul-21 15:26N 29°23' W 094°54'0 0.0
2018-Jul-21 15:00N 29°23' W 094°54'0 0.0
2018-Jul-21 14:29N 29°23' W 094°54'0 0.0
2018-Jul-21 13:28N 29°23' W 094°54'0 0.0
2018-Jul-21 13:00N 29°23' W 094°54'1 1.3
2018-Jul-21 12:30N 29°22' W 094°53'0 0.0
2018-Jul-21 11:59N 29°22' W 094°53'0 0.0
2018-Jul-21 11:30N 29°22' W 094°53'0 0.0
2018-Jul-21 11:00N 29°22' W 094°53'0 0.0
2018-Jul-21 10:30N 29°22' W 094°53'0 0.0
2018-Jul-21 10:00N 29°22' W 094°53'0 0.0
2018-Jul-21 09:30N 29°22' W 094°53'0 0.0
2018-Jul-21 09:00N 29°22' W 094°53'0 0.0
2018-Jul-21 08:30N 29°22' W 094°53'0 0.0
2018-Jul-21 08:00N 29°22' W 094°53'0 0.0
2018-Jul-21 07:30N 29°22' W 094°53'0 0.0
2018-Jul-21 06:59N 29°22' W 094°53'0 0.0
2018-Jul-21 06:30N 29°22' W 094°53'0 0.0
2018-Jul-21 06:00N 29°22' W 094°53'0 0.0
2018-Jul-21 05:30N 29°22' W 094°53'0 0.0
2018-Jul-21 05:00N 29°22' W 094°53'0 0.0
2018-Jul-21 04:30N 29°22' W 094°53'0 0.0
2018-Jul-21 04:00N 29°22' W 094°53'0 0.5
2018-Jul-21 03:30N 29°22' W 094°53'0 0.5
2018-Jul-21 03:00N 29°22' W 094°53'1 1.3
2018-Jul-21 02:30N 29°22' W 094°53'4 7.4
2018-Jul-21 02:00N 29°22' W 094°49'3 6.2
2018-Jul-21 01:30N 29°23' W 094°46'3 5.7
2018-Jul-21 01:00N 29°25' W 094°43'4 7.2
2018-Jul-21 00:30N 29°28' W 094°40'2 3.8
2018-Jul-21 00:00N 29°28' W 094°38'4 7.2
2018-Jul-20 23:29N 29°30' W 094°34'3 7.1
2018-Jul-20 23:00N 29°31' W 094°31'3 6.5
2018-Jul-20 22:30N 29°33' W 094°28'3 5.8
2018-Jul-20 22:00N 29°35' W 094°25'2 4.7
2018-Jul-20 21:29N 29°36' W 094°22'3 6.2
2018-Jul-20 21:00N 29°37' W 094°20'3 6.3
2018-Jul-20 20:29N 29°39' W 094°16'3 6.3
2018-Jul-20 20:00N 29°40' W 094°13'3 6.0
2018-Jul-20 19:30N 29°41' W 094°10'3 6.0
2018-Jul-20 19:00N 29°43' W 094°07'3 6.2
2018-Jul-20 18:30N 29°45' W 094°04'3 5.6
2018-Jul-20 18:00N 29°47' W 094°02'3 5.6
2018-Jul-20 17:30N 29°49' W 093°60'2 4.9
2018-Jul-20 17:00N 29°50' W 093°57'3 6.1
2018-Jul-20 16:30N 29°53' W 093°55'3 6.3
2018-Jul-20 16:00N 29°55' W 093°53'3 6.5
2018-Jul-20 15:30N 29°58' W 093°51'0 0.4
2018-Jul-20 15:00N 29°58' W 093°52'0 0.1
2018-Jul-20 14:28N 29°58' W 093°52'2 4.6
2018-Jul-20 14:00N 29°59' W 093°49'4 8.5
2018-Jul-20 13:30N 30°01' W 093°45'3 6.3
2018-Jul-20 13:00N 30°03' W 093°42'3 5.1
2018-Jul-20 12:29N 30°04' W 093°39'2 4.5
2018-Jul-20 12:00N 30°04' W 093°37'2 4.4
2018-Jul-20 11:30N 30°04' W 093°34'2 4.5
2018-Jul-20 11:00N 30°04' W 093°32'3 5.0
2018-Jul-20 10:30N 30°04' W 093°29'3 5.1
2018-Jul-20 10:00N 30°04' W 093°26'1 2.4
2018-Jul-20 09:30N 30°04' W 093°25'2 3.8
2018-Jul-20 09:00N 30°04' W 093°22'2 3.3
2018-Jul-20 08:30N 30°04' W 093°21'1 1.2
2018-Jul-20 08:00N 30°05' W 093°20'0 0.0
2018-Jul-20 07:30N 30°05' W 093°20'0 0.0
2018-Jul-20 07:00N 30°05' W 093°20'1 2.3
2018-Jul-20 06:30N 30°06' W 093°19'2 3.0
2018-Jul-20 06:00N 30°05' W 093°18'0 0.8
2018-Jul-20 05:30N 30°05' W 093°17'1 1.2
2018-Jul-20 05:00N 30°05' W 093°17'0 0.0
2018-Jul-20 04:30N 30°05' W 093°17'1 2.2
2018-Jul-20 04:00N 30°04' W 093°16'2 3.3
2018-Jul-20 03:30N 30°02' W 093°15'0 1.0
2018-Jul-20 03:00N 30°02' W 093°15'1 1.8
2018-Jul-20 02:30N 30°01' W 093°14'0 0.0
2018-Jul-20 02:00N 30°01' W 093°14'0 0.0
2018-Jul-20 01:30N 30°01' W 093°14'0 0.0
2018-Jul-20 01:00N 30°02' W 093°14'0 0.0
2018-Jul-20 00:30N 30°01' W 093°14'0 0.0
2018-Jul-20 00:00N 30°02' W 093°14'0 0.0
2018-Jul-19 23:30N 30°02' W 093°14'0 0.0
2018-Jul-19 22:59N 30°02' W 093°14'0 0.1
2018-Jul-19 22:30N 30°01' W 093°14'3 6.0
2018-Jul-19 22:00N 29°59' W 093°12'0 0.5
2018-Jul-19 21:30N 29°59' W 093°12'0 0.0
2018-Jul-19 21:00N 29°59' W 093°12'0 0.0
2018-Jul-19 20:29N 29°59' W 093°12'0 0.0
2018-Jul-19 20:00N 29°59' W 093°12'0 0.0
2018-Jul-19 19:28N 29°59' W 093°12'0 0.0
2018-Jul-19 19:00N 29°59' W 093°12'0 0.0
2018-Jul-19 18:28N 29°59' W 093°12'0 0.0
2018-Jul-19 18:00N 29°59' W 093°12'0 0.0
2018-Jul-19 17:30N 29°59' W 093°12'0 0.0
2018-Jul-19 17:00N 29°59' W 093°12'0 0.0
2018-Jul-19 16:30N 29°59' W 093°12'0 0.0
2018-Jul-19 16:00N 29°59' W 093°12'0 0.0
2018-Jul-19 15:30N 29°59' W 093°12'0 0.0
2018-Jul-19 14:56N 29°59' W 093°12'0 0.0
2018-Jul-19 14:30N 29°59' W 093°12'1 0.7
2018-Jul-19 13:30N 29°58' W 093°11'0 0.0
2018-Jul-19 13:00N 29°58' W 093°11'0 0.0
2018-Jul-19 12:30N 29°58' W 093°11'0 0.0
2018-Jul-19 12:00N 29°58' W 093°11'0 0.0
2018-Jul-19 11:30N 29°58' W 093°11'0 0.0
2018-Jul-19 11:00N 29°58' W 093°11'0 0.0
2018-Jul-19 10:30N 29°58' W 093°11'0 0.0
2018-Jul-19 10:00N 29°58' W 093°11'0 0.0
2018-Jul-19 09:30N 29°58' W 093°11'0 0.0
2018-Jul-19 09:00N 29°58' W 093°11'0 0.0
2018-Jul-19 08:30N 29°58' W 093°11'0 0.0
2018-Jul-19 08:00N 29°58' W 093°11'0 0.0
2018-Jul-19 07:30N 29°58' W 093°11'0 0.0
2018-Jul-19 07:00N 29°58' W 093°11'0 0.0
2018-Jul-19 06:30N 29°58' W 093°11'0 0.0
2018-Jul-19 06:00N 29°58' W 093°11'0 0.0
2018-Jul-19 05:30N 29°58' W 093°11'0 0.0
2018-Jul-19 05:00N 29°58' W 093°11'0 0.0
2018-Jul-19 04:30N 29°58' W 093°11'0 0.0
2018-Jul-19 04:00N 29°58' W 093°11'1 2.9
2018-Jul-19 03:30N 29°57' W 093°10'1 1.8
2018-Jul-19 02:59N 29°56' W 093°10'0 0.0
2018-Jul-19 02:30N 29°56' W 093°10'0 0.0
2018-Jul-19 02:00N 29°56' W 093°10'0 0.1
2018-Jul-19 01:30N 29°56' W 093°10'1 2.3
2018-Jul-19 01:00N 29°56' W 093°08'1 2.3
2018-Jul-19 00:29N 29°56' W 093°07'1 2.9
2018-Jul-19 00:00N 29°56' W 093°05'0 0.1
2018-Jul-18 23:30N 29°56' W 093°05'0 0.0
2018-Jul-18 22:59N 29°56' W 093°05'0 0.0
2018-Jul-18 22:30N 29°56' W 093°05'0 0.0
2018-Jul-18 22:00N 29°56' W 093°05'0 0.0
2018-Jul-18 21:27N 29°56' W 093°05'0 0.0
2018-Jul-18 20:59N 29°56' W 093°05'0 0.0
2018-Jul-18 20:30N 29°56' W 093°05'0 0.0
2018-Jul-18 20:00N 29°56' W 093°05'0 0.0
2018-Jul-18 19:30N 29°56' W 093°05'0 0.0
2018-Jul-18 19:00N 29°56' W 093°05'0 0.0
2018-Jul-18 18:30N 29°56' W 093°05'0 0.0
2018-Jul-18 18:00N 29°56' W 093°05'0 0.0
2018-Jul-18 17:30N 29°56' W 093°05'0 0.0
2018-Jul-18 17:00N 29°56' W 093°05'0 0.0
2018-Jul-18 16:29N 29°56' W 093°05'0 0.0
2018-Jul-18 16:00N 29°56' W 093°05'0 0.0
2018-Jul-18 15:24N 29°56' W 093°05'0 0.0
2018-Jul-18 15:00N 29°56' W 093°05'0 0.0
2018-Jul-18 14:30N 29°56' W 093°05'0 0.0
2018-Jul-18 13:30N 29°56' W 093°05'0 0.0
2018-Jul-18 13:00N 29°56' W 093°05'1 1.2
2018-Jul-18 12:30N 29°56' W 093°06'1 1.8
2018-Jul-18 12:00N 29°56' W 093°07'0 0.0
2018-Jul-18 11:30N 29°56' W 093°07'0 0.0
2018-Jul-18 10:30N 29°56' W 093°07'0 0.0
2018-Jul-18 10:00N 29°56' W 093°07'0 0.0
2018-Jul-18 09:30N 29°56' W 093°07'0 0.0
2018-Jul-18 09:00N 29°56' W 093°07'0 0.0
2018-Jul-18 08:30N 29°56' W 093°07'0 0.0
2018-Jul-18 08:00N 29°56' W 093°07'0 0.0
2018-Jul-18 07:30N 29°56' W 093°07'0 0.0
2018-Jul-18 07:00N 29°56' W 093°07'0 0.0
2018-Jul-18 06:29N 29°56' W 093°07'0 0.0
2018-Jul-18 06:00N 29°56' W 093°07'0 0.0
2018-Jul-18 05:30N 29°56' W 093°07'0 0.0
2018-Jul-18 05:00N 29°56' W 093°07'0 0.0
2018-Jul-18 04:30N 29°56' W 093°07'0 0.1
2018-Jul-18 03:59N 29°56' W 093°07'0 0.1
2018-Jul-18 03:30N 29°56' W 093°07'0 0.0
2018-Jul-18 03:00N 29°56' W 093°07'0 0.0
2018-Jul-18 02:30N 29°56' W 093°07'0 0.0
2018-Jul-18 02:00N 29°56' W 093°07'2 3.0
2018-Jul-18 01:30N 29°56' W 093°05'3 2.6
2018-Jul-18 00:19N 29°56' W 093°02'0 0.0
2018-Jul-17 23:54N 29°56' W 093°02'0 0.0
2018-Jul-17 23:30N 29°56' W 093°02'0 0.0
2018-Jul-17 23:00N 29°56' W 093°02'0 0.0
2018-Jul-17 19:20N 29°56' W 093°02'0 0.0
2018-Jul-17 14:11N 29°56' W 093°02'0 0.8
2018-Jul-17 13:45N 29°56' W 093°01'1 2.6
2018-Jul-17 13:21N 29°56' W 093°00'1 2.9
2018-Jul-17 13:00N 29°56' W 092°59'1 1.0
2018-Jul-17 12:29N 29°56' W 092°58'0 0.0
2018-Jul-17 11:59N 29°56' W 092°58'0 0.0
2018-Jul-17 11:30N 29°56' W 092°58'0 0.0
2018-Jul-17 10:56N 29°56' W 092°58'0 0.0
2018-Jul-17 10:30N 29°56' W 092°58'0 0.0
2018-Jul-17 10:00N 29°56' W 092°58'0 0.0
2018-Jul-17 09:29N 29°56' W 092°58'0 0.0
2018-Jul-17 09:00N 29°56' W 092°58'0 0.0
2018-Jul-17 08:29N 29°56' W 092°58'0 0.0
2018-Jul-17 08:00N 29°56' W 092°58'0 0.0
2018-Jul-17 07:29N 29°56' W 092°58'0 0.0
2018-Jul-17 07:00N 29°56' W 092°58'0 0.0
2018-Jul-17 06:30N 29°56' W 092°58'0 0.0
2018-Jul-17 05:58N 29°56' W 092°58'0 0.0
2018-Jul-17 05:30N 29°56' W 092°58'0 0.0
2018-Jul-17 04:56N 29°56' W 092°58'0 0.0
2018-Jul-17 04:10N 29°56' W 092°58'0 0.0
2018-Jul-17 03:57N 29°56' W 092°58'0 0.0
2018-Jul-17 03:30N 29°56' W 092°58'0 0.0
2018-Jul-17 02:47N 29°56' W 092°58'5 0.4
2018-Jul-16 14:08N 29°57' W 092°53'0 3.1
2018-Jul-16 14:00N 29°57' W 092°53'22 4.7
2018-Jul-16 09:13N 29°54' W 092°27'1 4.0
2018-Jul-16 09:00N 29°53' W 092°26'2 3.3
2018-Jul-16 08:30N 29°53' W 092°24'3 4.1
2018-Jul-16 07:49N 29°51' W 092°22'1 4.0
2018-Jul-16 07:30N 29°51' W 092°20'2 3.6
2018-Jul-16 07:00N 29°50' W 092°18'2 3.7
2018-Jul-16 06:30N 29°49' W 092°17'2 3.1
2018-Jul-16 06:00N 29°48' W 092°15'2 3.1
2018-Jul-16 05:30N 29°48' W 092°14'1 2.8
2018-Jul-16 05:00N 29°47' W 092°12'1 2.6
2018-Jul-16 04:30N 29°47' W 092°11'1 2.9
2018-Jul-16 04:00N 29°47' W 092°09'2 4.2
2018-Jul-16 03:30N 29°47' W 092°07'3 5.7
2018-Jul-16 03:00N 29°48' W 092°04'3 5.8
2018-Jul-16 02:30N 29°50' W 092°01'3 6.5
2018-Jul-16 02:00N 29°50' W 091°57'63 3.8
2018-Jul-15 09:37N 29°32' W 090°48'1 4.7
2018-Jul-15 09:30N 29°32' W 090°48'2 4.0
2018-Jul-15 09:00N 29°33' W 090°45'2 3.8
2018-Jul-15 08:30N 29°34' W 090°44'1 2.7
2018-Jul-15 08:00N 29°35' W 090°43'2 3.7
2018-Jul-15 07:30N 29°37' W 090°42'2 4.8
2018-Jul-15 06:59N 29°36' W 090°39'3 4.5
2018-Jul-15 06:26N 29°35' W 090°37'  

Dump ship's entire track history